Time,TemperatureF,DewpointF,PressureIn,WindDirection,WindDirectionDegrees,WindSpeedMPH,WindSpeedGustMPH,Humidity,HourlyPrecipIn,Conditions,Clouds,dailyrainin,SolarRadiationWatts/m^2,SoftwareType,DateUTC
2013-06-29 00:01:00,57.0,56.0,-100.00,North,10,1.0,5.0,96,0.00,,,0.30,0.000000,,2013-06-29 05:01:00,
2013-06-29 00:21:00,57.0,56.0,-100.00,North,10,1.0,5.0,96,0.00,,,0.30,0.000000,,2013-06-29 05:21:00,
2013-06-29 00:31:00,57.0,56.0,-100.00,North,10,1.0,5.0,96,0.00,,,0.30,0.000000,,2013-06-29 05:31:00,
2013-06-29 00:41:00,57.0,56.0,-100.00,North,10,1.0,5.0,96,0.00,,,0.30,0.000000,,2013-06-29 05:41:00,
2013-06-29 00:52:00,57.0,56.0,-100.00,North,10,1.0,5.0,96,0.00,,,0.30,0.000000,,2013-06-29 05:52:00,
2013-06-29 01:01:00,54.0,53.0,-100.00,NW,325,4.0,7.0,98,0.00,,,0.30,0.000000,,2013-06-29 06:01:00,
2013-06-29 01:22:00,54.0,53.0,-100.00,NW,325,4.0,7.0,98,0.00,,,0.30,0.000000,,2013-06-29 06:22:00,
2013-06-29 01:34:00,54.0,53.0,-100.00,NW,325,4.0,7.0,98,0.00,,,0.30,0.000000,,2013-06-29 06:34:00,
2013-06-29 01:43:00,54.0,53.0,-100.00,NW,325,4.0,7.0,98,0.00,,,0.30,0.000000,,2013-06-29 06:43:00,
2013-06-29 01:53:00,54.0,53.0,-100.00,NW,325,4.0,7.0,98,0.00,,,0.30,0.000000,,2013-06-29 06:53:00,
2013-06-29 02:01:00,54.0,53.0,-100.00,NE,35,2.0,5.0,98,0.00,,,0.30,0.000000,,2013-06-29 07:01:00,
2013-06-29 02:22:00,54.0,53.0,-100.00,NE,35,2.0,5.0,98,0.00,,,0.30,0.000000,,2013-06-29 07:22:00,
2013-06-29 02:33:00,54.0,53.0,-100.00,NE,35,2.0,5.0,98,0.00,,,0.30,0.000000,,2013-06-29 07:33:00,
2013-06-29 02:43:00,54.0,53.0,-100.00,NE,35,2.0,5.0,98,0.00,,,0.30,0.000000,,2013-06-29 07:43:00,
2013-06-29 02:53:00,54.0,53.0,-100.00,NE,35,2.0,5.0,98,0.00,,,0.30,0.000000,,2013-06-29 07:53:00,
2013-06-29 03:01:00,55.0,55.0,-100.00,North,359,0.0,2.0,99,0.00,,,0.30,0.000000,,2013-06-29 08:01:00,
2013-06-29 03:22:00,55.0,55.0,-100.00,North,359,0.0,2.0,99,0.00,,,0.30,0.000000,,2013-06-29 08:22:00,
2013-06-29 03:33:00,55.0,55.0,-100.00,North,359,0.0,2.0,99,0.00,,,0.30,0.000000,,2013-06-29 08:33:00,
2013-06-29 03:43:00,55.0,55.0,-100.00,North,359,0.0,2.0,99,0.00,,,0.30,0.000000,,2013-06-29 08:43:00,
2013-06-29 03:52:00,55.0,55.0,-100.00,North,359,0.0,2.0,99,0.00,,,0.30,0.000000,,2013-06-29 08:52:00,
2013-06-29 04:01:00,54.0,54.0,-100.00,WNW,286,2.0,4.0,99,0.00,,,0.30,0.000000,,2013-06-29 09:01:00,
2013-06-29 04:22:00,54.0,54.0,-100.00,WNW,286,2.0,4.0,99,0.00,,,0.30,0.000000,,2013-06-29 09:22:00,
2013-06-29 04:33:00,54.0,54.0,-100.00,WNW,286,2.0,4.0,99,0.00,,,0.30,0.000000,,2013-06-29 09:33:00,
2013-06-29 04:42:00,54.0,54.0,-100.00,WNW,286,2.0,4.0,99,0.00,,,0.30,0.000000,,2013-06-29 09:42:00,
2013-06-29 04:53:00,54.0,54.0,-100.00,WNW,286,2.0,4.0,99,0.00,,,0.30,0.000000,,2013-06-29 09:53:00,
2013-06-29 05:01:00,54.0,54.0,-100.00,NNE,33,0.0,2.0,99,0.00,,,0.30,0.000000,,2013-06-29 10:01:00,
2013-06-29 05:22:00,54.0,54.0,-100.00,NNE,33,0.0,2.0,99,0.00,,,0.30,0.000000,,2013-06-29 10:22:00,
2013-06-29 05:33:00,54.0,54.0,-100.00,NNE,33,0.0,2.0,99,0.00,,,0.30,0.000000,,2013-06-29 10:33:00,
2013-06-29 05:43:00,54.0,54.0,-100.00,NNE,33,0.0,2.0,99,0.00,,,0.30,0.000000,,2013-06-29 10:43:00,
2013-06-29 05:53:00,54.0,54.0,-100.00,NNE,33,0.0,2.0,99,0.00,,,0.30,0.000000,,2013-06-29 10:53:00,
2013-06-29 06:01:00,55.0,54.0,-100.00,NE,35,2.0,4.0,97,0.01,,,0.31,7.000000,,2013-06-29 11:01:00,
2013-06-29 06:24:00,55.0,54.0,-100.00,NE,35,2.0,4.0,97,0.01,,,0.31,7.000000,,2013-06-29 11:24:00,
2013-06-29 06:33:00,55.0,54.0,-100.00,NE,35,2.0,4.0,97,0.01,,,0.31,7.000000,,2013-06-29 11:33:00,
2013-06-29 06:43:00,55.0,54.0,-100.00,NE,35,2.0,4.0,97,0.01,,,0.31,7.000000,,2013-06-29 11:43:00,
2013-06-29 06:53:00,55.0,54.0,-100.00,NE,35,2.0,4.0,97,0.01,,,0.31,7.000000,,2013-06-29 11:53:00,
2013-06-29 07:01:00,56.0,55.0,-100.00,NE,34,2.0,4.0,96,0.00,,,0.31,36.000000,,2013-06-29 12:01:00,
2013-06-29 07:22:00,56.0,55.0,-100.00,NE,34,2.0,4.0,96,0.00,,,0.31,36.000000,,2013-06-29 12:22:00,
2013-06-29 07:34:00,56.0,55.0,-100.00,NE,34,2.0,4.0,96,0.00,,,0.31,36.000000,,2013-06-29 12:34:00,
2013-06-29 07:43:00,56.0,55.0,-100.00,NE,34,2.0,4.0,96,0.00,,,0.31,36.000000,,2013-06-29 12:43:00,
2013-06-29 07:53:00,56.0,55.0,-100.00,NE,34,2.0,4.0,96,0.00,,,0.31,36.000000,,2013-06-29 12:53:00,
2013-06-29 08:01:00,58.0,56.0,-100.00,NE,54,2.0,4.0,93,0.00,,,0.30,105.000000,,2013-06-29 13:01:00,
2013-06-29 08:23:00,58.0,56.0,-100.00,NE,54,2.0,4.0,93,0.00,,,0.30,105.000000,,2013-06-29 13:23:00,
2013-06-29 08:34:00,58.0,56.0,-100.00,NE,54,2.0,4.0,93,0.00,,,0.30,105.000000,,2013-06-29 13:34:00,
2013-06-29 08:43:00,58.0,56.0,-100.00,NE,54,2.0,4.0,93,0.00,,,0.30,105.000000,,2013-06-29 13:43:00,
2013-06-29 08:53:00,58.0,56.0,-100.00,NE,54,2.0,4.0,93,0.00,,,0.30,105.000000,,2013-06-29 13:53:00,
2013-06-29 09:01:00,60.0,56.0,-100.00,North,1,3.0,6.0,88,0.00,,,0.25,226.000000,,2013-06-29 14:01:00,
2013-06-29 09:23:00,60.0,56.0,-100.00,North,1,3.0,6.0,88,0.00,,,0.25,226.000000,,2013-06-29 14:23:00,
2013-06-29 09:34:00,60.0,56.0,-100.00,North,1,3.0,6.0,88,0.00,,,0.25,226.000000,,2013-06-29 14:34:00,
2013-06-29 09:45:00,60.0,56.0,-100.00,North,1,3.0,6.0,88,0.00,,,0.25,226.000000,,2013-06-29 14:45:00,
2013-06-29 09:53:00,60.0,56.0,-100.00,North,1,3.0,6.0,88,0.00,,,0.25,226.000000,,2013-06-29 14:53:00,
2013-06-29 10:01:00,60.0,56.0,-100.00,North,358,5.0,12.0,87,0.00,,,0.17,301.000000,,2013-06-29 15:01:00,
2013-06-29 10:22:00,60.0,56.0,-100.00,North,358,5.0,12.0,87,0.00,,,0.17,301.000000,,2013-06-29 15:22:00,
2013-06-29 10:33:00,60.0,56.0,-100.00,North,358,5.0,12.0,87,0.00,,,0.17,301.000000,,2013-06-29 15:33:00,
2013-06-29 10:42:00,60.0,56.0,-100.00,North,358,5.0,12.0,87,0.00,,,0.17,301.000000,,2013-06-29 15:42:00,
2013-06-29 10:53:00,60.0,56.0,-100.00,North,358,5.0,12.0,87,0.00,,,0.17,301.000000,,2013-06-29 15:53:00,
2013-06-29 11:01:00,63.0,53.0,-100.00,NNE,28,6.0,13.0,70,0.00,,,0.14,490.000000,,2013-06-29 16:01:00,
2013-06-29 11:23:00,63.0,53.0,-100.00,NNE,28,6.0,13.0,70,0.00,,,0.14,490.000000,,2013-06-29 16:23:00,
2013-06-29 11:34:00,63.0,53.0,-100.00,NNE,28,6.0,13.0,70,0.00,,,0.14,490.000000,,2013-06-29 16:34:00,
2013-06-29 11:43:00,63.0,53.0,-100.00,NNE,28,6.0,13.0,70,0.00,,,0.14,490.000000,,2013-06-29 16:43:00,
2013-06-29 11:53:00,63.0,53.0,-100.00,NNE,28,6.0,13.0,70,0.00,,,0.14,490.000000,,2013-06-29 16:53:00,
2013-06-29 12:01:00,64.0,52.0,-100.00,NE,39,7.0,15.0,64,0.00,,,0.13,625.000000,,2013-06-29 17:01:00,
2013-06-29 12:23:00,64.0,52.0,-100.00,NE,39,7.0,15.0,64,0.00,,,0.13,625.000000,,2013-06-29 17:23:00,
2013-06-29 12:34:00,64.0,52.0,-100.00,NE,39,7.0,15.0,64,0.00,,,0.13,625.000000,,2013-06-29 17:34:00,
2013-06-29 12:42:00,64.0,52.0,-100.00,NE,39,7.0,15.0,64,0.00,,,0.13,625.000000,,2013-06-29 17:42:00,
2013-06-29 12:53:00,64.0,52.0,-100.00,NE,39,7.0,15.0,64,0.00,,,0.13,625.000000,,2013-06-29 17:53:00,
2013-06-29 13:01:00,66.0,50.0,-100.00,NE,34,8.0,15.0,56,0.00,,,0.01,880.000000,,2013-06-29 18:01:00,
2013-06-29 13:22:00,66.0,50.0,-100.00,NE,34,8.0,15.0,56,0.00,,,0.01,880.000000,,2013-06-29 18:22:00,
2013-06-29 13:34:00,66.0,50.0,-100.00,NE,34,8.0,15.0,56,0.00,,,0.01,880.000000,,2013-06-29 18:34:00,
2013-06-29 13:43:00,66.0,50.0,-100.00,NE,34,8.0,15.0,56,0.00,,,0.01,880.000000,,2013-06-29 18:43:00,
2013-06-29 13:53:00,66.0,50.0,-100.00,NE,34,8.0,15.0,56,0.00,,,0.01,880.000000,,2013-06-29 18:53:00,
2013-06-29 14:01:00,70.0,52.0,-100.00,NNE,31,6.0,14.0,52,0.00,,,0.01,939.000000,,2013-06-29 19:01:00,
2013-06-29 14:22:00,70.0,52.0,-100.00,NNE,31,6.0,14.0,52,0.00,,,0.01,939.000000,,2013-06-29 19:22:00,
2013-06-29 14:34:00,70.0,52.0,-100.00,NNE,31,6.0,14.0,52,0.00,,,0.01,939.000000,,2013-06-29 19:34:00,
2013-06-29 14:43:00,70.0,52.0,-100.00,NNE,31,6.0,14.0,52,0.00,,,0.01,939.000000,,2013-06-29 19:43:00,
2013-06-29 14:54:00,70.0,52.0,-100.00,NNE,31,6.0,14.0,52,0.00,,,0.01,939.000000,,2013-06-29 19:54:00,
2013-06-29 15:01:00,69.0,50.0,-100.00,North,2,6.0,13.0,50,0.00,,,0.01,851.000000,,2013-06-29 20:01:00,
2013-06-29 15:23:00,69.0,50.0,-100.00,North,2,6.0,13.0,50,0.00,,,0.01,851.000000,,2013-06-29 20:23:00,
2013-06-29 15:33:00,69.0,50.0,-100.00,North,2,6.0,13.0,50,0.00,,,0.01,851.000000,,2013-06-29 20:33:00,
2013-06-29 15:43:00,69.0,50.0,-100.00,North,2,6.0,13.0,50,0.00,,,0.01,851.000000,,2013-06-29 20:43:00,
2013-06-29 15:52:00,69.0,50.0,-100.00,North,2,6.0,13.0,50,0.00,,,0.01,851.000000,,2013-06-29 20:52:00,
2013-06-29 16:01:00,68.0,46.0,-100.00,NE,37,9.0,18.0,45,0.00,,,0.01,776.000000,,2013-06-29 21:01:00,
2013-06-29 16:32:00,68.0,46.0,-100.00,NE,37,9.0,18.0,45,0.00,,,0.01,776.000000,,2013-06-29 21:32:00,
2013-06-29 16:42:00,68.0,46.0,-100.00,NE,37,9.0,18.0,45,0.00,,,0.01,776.000000,,2013-06-29 21:42:00,
2013-06-29 16:52:00,68.0,46.0,-100.00,NE,37,9.0,18.0,45,0.00,,,0.01,776.000000,,2013-06-29 21:52:00,
2013-06-29 17:01:00,65.0,45.0,-100.00,NE,49,6.0,15.0,48,0.00,,,0.01,633.000000,,2013-06-29 22:01:00,
2013-06-29 17:33:00,65.0,45.0,-100.00,NE,49,6.0,15.0,48,0.00,,,0.01,633.000000,,2013-06-29 22:33:00,
2013-06-29 17:43:00,65.0,45.0,-100.00,NE,49,6.0,15.0,48,0.00,,,0.01,633.000000,,2013-06-29 22:43:00,
2013-06-29 17:53:00,65.0,45.0,-100.00,NE,49,6.0,15.0,48,0.00,,,0.01,633.000000,,2013-06-29 22:53:00,
2013-06-29 18:01:00,66.0,45.0,-100.00,NE,36,5.0,14.0,46,0.00,,,-99.99,377.000000,,2013-06-29 23:01:00,
2013-06-29 18:23:00,66.0,45.0,-100.00,NE,36,5.0,14.0,46,0.00,,,-99.99,377.000000,,2013-06-29 23:23:00,
2013-06-29 18:34:00,66.0,45.0,-100.00,NE,36,5.0,14.0,46,0.00,,,-99.99,377.000000,,2013-06-29 23:34:00,
2013-06-29 18:43:00,66.0,45.0,-100.00,NE,36,5.0,14.0,46,0.00,,,-99.99,377.000000,,2013-06-29 23:43:00,
2013-06-29 18:53:00,66.0,45.0,-100.00,NE,36,5.0,14.0,46,0.00,,,-99.99,377.000000,,2013-06-29 23:53:00,
2013-06-29 19:01:00,65.0,45.0,-100.00,NE,49,7.0,14.0,48,0.00,,,0.01,347.000000,,2013-06-30 00:01:00,
2013-06-29 19:22:00,65.0,45.0,-100.00,NE,49,7.0,14.0,48,0.00,,,0.01,347.000000,,2013-06-30 00:22:00,
2013-06-29 19:34:00,65.0,45.0,-100.00,NE,49,7.0,14.0,48,0.00,,,0.01,347.000000,,2013-06-30 00:34:00,
2013-06-29 19:43:00,65.0,45.0,-100.00,NE,49,7.0,14.0,48,0.00,,,0.01,347.000000,,2013-06-30 00:43:00,
2013-06-29 19:52:00,65.0,45.0,-100.00,NE,49,7.0,14.0,48,0.00,,,0.01,347.000000,,2013-06-30 00:52:00,
2013-06-29 20:01:00,61.0,46.0,-100.00,ENE,57,2.0,11.0,57,0.00,,,0.01,129.000000,,2013-06-30 01:01:00,
2013-06-29 20:22:00,61.0,46.0,-100.00,ENE,57,2.0,11.0,57,0.00,,,0.01,129.000000,,2013-06-30 01:22:00,
2013-06-29 20:33:00,61.0,46.0,-100.00,ENE,57,2.0,11.0,57,0.00,,,0.01,129.000000,,2013-06-30 01:33:00,
2013-06-29 20:44:00,61.0,46.0,-100.00,ENE,57,2.0,11.0,57,0.00,,,0.01,129.000000,,2013-06-30 01:44:00,
2013-06-29 20:53:00,61.0,46.0,-100.00,ENE,57,2.0,11.0,57,0.00,,,0.01,129.000000,,2013-06-30 01:53:00,
2013-06-29 21:01:00,53.0,49.0,-100.00,SW,224,0.0,4.0,87,0.00,,,0.01,30.000000,,2013-06-30 02:01:00,
2013-06-29 21:24:00,53.0,49.0,-100.00,SW,224,0.0,4.0,87,0.00,,,0.01,30.000000,,2013-06-30 02:24:00,
2013-06-29 21:34:00,53.0,49.0,-100.00,SW,224,0.0,4.0,87,0.00,,,0.01,30.000000,,2013-06-30 02:34:00,
2013-06-29 21:43:00,53.0,49.0,-100.00,SW,224,0.0,4.0,87,0.00,,,0.01,30.000000,,2013-06-30 02:43:00,
2013-06-29 21:53:00,53.0,49.0,-100.00,SW,224,0.0,4.0,87,0.00,,,0.01,30.000000,,2013-06-30 02:53:00,
2013-06-29 22:01:00,49.0,48.0,-100.00,SW,230,1.0,2.0,97,0.00,,,0.01,0.000000,,2013-06-30 03:01:00,
2013-06-29 22:23:00,49.0,48.0,-100.00,SW,230,1.0,2.0,97,0.00,,,0.01,0.000000,,2013-06-30 03:23:00,
2013-06-29 22:34:00,49.0,48.0,-100.00,SW,230,1.0,2.0,97,0.00,,,0.01,0.000000,,2013-06-30 03:34:00,
2013-06-29 22:43:00,49.0,48.0,-100.00,SW,230,1.0,2.0,97,0.00,,,0.01,0.000000,,2013-06-30 03:43:00,
2013-06-29 22:53:00,49.0,48.0,-100.00,SW,230,1.0,2.0,97,0.00,,,0.01,0.000000,,2013-06-30 03:53:00,
2013-06-29 23:01:00,47.0,46.0,-100.00,WSW,254,2.0,2.0,98,0.00,,,0.01,0.000000,,2013-06-30 04:01:00,
2013-06-29 23:33:00,47.0,46.0,-100.00,WSW,254,2.0,2.0,98,0.00,,,0.01,0.000000,,2013-06-30 04:33:00,
2013-06-29 23:43:00,47.0,46.0,-100.00,WSW,254,2.0,2.0,98,0.00,,,0.01,0.000000,,2013-06-30 04:43:00,
2013-06-29 23:53:00,47.0,46.0,-100.00,WSW,254,2.0,2.0,98,0.00,,,0.01,0.000000,,2013-06-30 04:53:00,